Time;durP1;ratioP1;P1;durP2;ratioP2;P2;SDS_P1;SDS_P2;PMS_P1;PMS_P2;Temp;Humidity;BMP_temperature;BMP_pressure;BME280_temperature;BME280_humidity;BME280_pressure;Samples;Min_cycle;Max_cycle;Signal;HPM_P1;HPM_P2
2023/08/03 00:00:37;;;;;;;14.27;13.43;;;16.90;99.90;;;;;;4976170;28;20049;-76
2023/08/03 00:03:05;;;;;;;14.82;13.70;;;17.00;99.90;;;;;;4999090;28;20116;-75
2023/08/03 00:05:33;;;;;;;14.52;13.40;;;17.00;99.90;;;;;;4990942;28;20132;-75
2023/08/03 00:07:59;;;;;;;15.98;14.50;;;17.00;99.90;;;;;;4979950;28;20646;-76
2023/08/03 00:10:26;;;;;;;14.30;13.40;;;16.90;99.90;;;;;;4984271;28;20050;-74
2023/08/03 00:12:53;;;;;;;14.38;13.23;;;16.90;99.90;;;;;;4997018;28;20060;-75
2023/08/03 00:15:20;;;;;;;14.68;13.27;;;16.90;99.90;;;;;;4995146;28;20103;-74
2023/08/03 00:17:46;;;;;;;14.32;13.40;;;16.80;99.90;;;;;;4994876;28;20057;-74
2023/08/03 00:20:14;;;;;;;14.30;13.18;;;16.80;99.90;;;;;;4986602;28;20053;-76
2023/08/03 00:22:40;;;;;;;15.05;14.02;;;16.70;99.90;;;;;;4992518;28;20072;-74
2023/08/03 00:25:07;;;;;;;13.65;12.75;;;16.70;99.90;;;;;;4998756;28;20053;-76
2023/08/03 00:27:34;;;;;;;14.68;13.77;;;16.70;99.90;;;;;;4991785;28;20103;-75
2023/08/03 00:30:01;;;;;;;14.57;13.57;;;16.70;99.90;;;;;;4997283;28;20046;-76
2023/08/03 00:32:28;;;;;;;15.07;13.75;;;16.80;99.90;;;;;;4991614;28;20045;-75
2023/08/03 00:34:56;;;;;;;15.13;14.07;;;16.70;99.90;;;;;;4993191;28;20101;-75
2023/08/03 00:37:23;;;;;;;14.73;13.43;;;16.60;99.90;;;;;;4989833;28;20046;-76
2023/08/03 00:39:49;;;;;;;15.70;14.18;;;16.60;99.90;;;;;;4989334;28;20419;-74
2023/08/03 00:42:16;;;;;;;14.15;13.13;;;16.60;99.90;;;;;;4990952;28;20543;-74
2023/08/03 00:44:43;;;;;;;12.80;11.82;;;16.60;99.90;;;;;;4991794;28;20100;-76
2023/08/03 00:47:10;;;;;;;13.10;12.00;;;16.50;99.90;;;;;;4990468;28;20141;-75
2023/08/03 00:49:37;;;;;;;13.82;12.55;;;16.50;99.90;;;;;;4985271;28;20058;-74
2023/08/03 00:52:04;;;;;;;13.45;12.43;;;16.50;99.90;;;;;;4995087;28;20065;-75
2023/08/03 00:54:31;;;;;;;12.70;11.40;;;16.50;99.90;;;;;;4992803;28;20053;-76
2023/08/03 00:56:58;;;;;;;12.32;11.32;;;16.50;99.90;;;;;;4998828;28;20096;-76
2023/08/03 00:59:24;;;;;;;11.63;10.70;;;16.40;99.90;;;;;;4976056;28;20068;-75
2023/08/03 01:01:51;;;;;;;11.73;10.70;;;16.40;99.90;;;;;;4995151;28;20543;-75
2023/08/03 01:04:18;;;;;;;12.85;11.82;;;16.40;99.90;;;;;;4994635;28;20042;-74
2023/08/03 01:06:45;;;;;;;12.45;11.18;;;16.40;99.90;;;;;;4980245;28;20463;-76
2023/08/03 01:09:12;;;;;;;11.43;10.60;;;16.40;99.90;;;;;;4997318;28;20050;-75
2023/08/03 01:11:42;;;;;;;12.70;11.18;;;16.30;99.90;;;;;;4974939;28;20073;-75
2023/08/03 01:14:10;;;;;;;12.43;11.68;;;16.30;99.90;;;;;;4992319;28;20153;-76
2023/08/03 01:16:37;;;;;;;11.85;10.88;;;16.20;99.90;;;;;;4978382;28;20630;-75
2023/08/03 01:19:05;;;;;;;11.65;10.50;;;16.20;99.90;;;;;;4978758;28;20049;-75
2023/08/03 01:21:33;;;;;;;11.52;10.65;;;16.10;99.90;;;;;;4993479;28;20056;-74
2023/08/03 01:24:00;;;;;;;12.68;11.43;;;16.10;99.90;;;;;;4991022;28;20112;-75
2023/08/03 01:26:26;;;;;;;11.82;10.45;;;16.10;99.90;;;;;;4995939;28;20111;-76
2023/08/03 01:28:53;;;;;;;11.57;10.65;;;16.10;99.90;;;;;;4979060;28;20119;-75
2023/08/03 01:31:20;;;;;;;11.68;10.80;;;16.10;99.90;;;;;;4979334;28;20034;-75
2023/08/03 01:33:47;;;;;;;11.27;10.50;;;16.10;99.90;;;;;;4995603;28;20081;-76
2023/08/03 01:36:14;;;;;;;11.00;10.30;;;16.10;99.90;;;;;;4995375;28;20530;-76
2023/08/03 01:38:41;;;;;;;11.25;10.25;;;16.10;99.90;;;;;;4987255;28;20058;-75
2023/08/03 01:41:07;;;;;;;11.70;11.00;;;16.10;99.90;;;;;;4984936;28;20662;-74
2023/08/03 01:43:34;;;;;;;12.10;11.40;;;16.10;99.90;;;;;;4992392;28;20049;-74
2023/08/03 01:46:02;;;;;;;11.93;10.80;;;16.20;99.90;;;;;;4997689;28;20042;-75
2023/08/03 01:48:28;;;;;;;10.77;10.13;;;16.10;99.90;;;;;;4973013;28;20045;-75
2023/08/03 01:50:55;;;;;;;9.65;9.15;;;16.00;99.90;;;;;;4979067;28;20163;-76
2023/08/03 01:53:22;;;;;;;9.63;9.20;;;16.00;99.90;;;;;;4992815;28;20125;-74
2023/08/03 01:55:49;;;;;;;8.70;8.05;;;15.90;99.90;;;;;;5003609;28;20062;-74
2023/08/03 01:58:16;;;;;;;8.60;8.15;;;15.90;99.90;;;;;;4976697;28;20045;-76
2023/08/03 02:00:43;;;;;;;7.50;7.20;;;15.90;99.90;;;;;;4988806;28;20066;-74
2023/08/03 02:03:09;;;;;;;7.20;6.78;;;15.90;99.90;;;;;;4999764;28;20061;-75
2023/08/03 02:05:36;;;;;;;6.50;6.03;;;15.70;99.90;;;;;;4991697;28;20103;-75
2023/08/03 02:08:04;;;;;;;7.47;6.88;;;15.70;99.90;;;;;;4993365;28;20042;-76
2023/08/03 02:10:30;;;;;;;8.38;7.82;;;15.70;99.90;;;;;;4988482;28;20049;-76
2023/08/03 02:12:57;;;;;;;8.27;7.88;;;15.80;99.90;;;;;;4980156;28;20057;-75
2023/08/03 02:15:24;;;;;;;6.70;6.45;;;15.80;99.90;;;;;;4990422;28;20068;-74
2023/08/03 02:17:50;;;;;;;6.22;5.93;;;15.80;99.90;;;;;;4996227;28;20482;-74
2023/08/03 02:20:18;;;;;;;6.07;5.20;;;15.70;99.90;;;;;;4993950;28;20140;-74
2023/08/03 02:22:44;;;;;;;4.85;4.55;;;15.60;99.90;;;;;;4992979;28;20448;-75
2023/08/03 02:25:11;;;;;;;4.75;4.50;;;15.60;99.90;;;;;;4994753;28;20108;-76
2023/08/03 02:27:38;;;;;;;4.55;4.32;;;15.50;99.90;;;;;;4980249;28;20101;-75
2023/08/03 02:30:09;;;;;;;3.90;3.50;;;15.50;99.90;;;;;;4970293;28;20065;-75
2023/08/03 02:32:37;;;;;;;3.38;3.10;;;15.50;99.90;;;;;;4971322;28;20419;-74
2023/08/03 02:35:05;;;;;;;4.00;2.95;;;15.40;99.90;;;;;;4983964;28;20141;-75
2023/08/03 02:37:32;;;;;;;4.38;2.90;;;15.30;99.90;;;;;;4976086;28;20065;-76
2023/08/03 02:40:08;;;;;;;3.30;2.63;;;15.40;99.90;;;;;;4993998;28;20148;-74
2023/08/03 02:42:36;;;;;;;3.13;2.90;;;15.30;99.90;;;;;;4974943;28;20062;-75
2023/08/03 02:45:03;;;;;;;3.15;2.95;;;15.40;99.90;;;;;;4996048;28;20041;-76
2023/08/03 02:47:30;;;;;;;2.65;2.50;;;15.40;99.90;;;;;;4988651;28;20054;-76
2023/08/03 02:49:57;;;;;;;4.85;3.30;;;15.40;99.90;;;;;;4993636;28;20065;-76
2023/08/03 02:52:24;;;;;;;3.58;2.55;;;15.40;99.90;;;;;;4993589;28;20120;-75
2023/08/03 02:54:51;;;;;;;2.90;2.70;;;15.30;99.90;;;;;;4992740;28;20050;-76
2023/08/03 02:57:20;;;;;;;5.70;3.20;;;15.40;99.90;;;;;;4987658;28;20065;-75
2023/08/03 02:59:49;;;;;;;3.22;2.60;;;15.40;99.90;;;;;;4988282;28;20108;-76
2023/08/03 03:02:20;;;;;;;2.92;2.60;;;15.30;99.90;;;;;;5001721;28;20113;-76
2023/08/03 03:04:46;;;;;;;4.00;2.55;;;15.40;99.90;;;;;;4989089;28;20595;-76
2023/08/03 03:07:13;;;;;;;3.35;3.17;;;15.40;99.90;;;;;;4994935;28;20045;-75
2023/08/03 03:09:41;;;;;;;3.05;2.85;;;15.40;99.90;;;;;;4994085;28;20041;-76
2023/08/03 03:12:08;;;;;;;2.97;2.85;;;15.40;99.90;;;;;;4991933;28;20046;-74
2023/08/03 03:14:45;;;;;;;2.72;2.45;;;15.40;99.90;;;;;;5013920;28;21201;-74
2023/08/03 03:17:13;;;;;;;2.65;2.28;;;15.30;99.90;;;;;;5001943;28;20048;-74
2023/08/03 03:19:41;;;;;;;3.53;2.30;;;15.30;99.90;;;;;;5002180;28;20051;-75
2023/08/03 03:22:08;;;;;;;2.83;1.77;;;15.20;99.90;;;;;;4975966;28;20101;-75
2023/08/03 03:24:35;;;;;;;2.80;1.75;;;15.20;99.90;;;;;;4986718;28;20038;-75
2023/08/03 03:27:02;;;;;;;4.15;1.80;;;15.10;99.90;;;;;;4993333;28;20667;-75
2023/08/03 03:29:31;;;;;;;1.35;1.13;;;15.10;99.90;;;;;;4974010;28;20046;-74
2023/08/03 03:31:59;;;;;;;2.85;1.58;;;15.00;99.90;;;;;;4995880;28;20042;-75
2023/08/03 03:34:30;;;;;;;10.77;1.70;;;15.00;99.90;;;;;;4980785;28;20053;-75
2023/08/03 03:36:57;;;;;;;5.43;1.30;;;14.90;99.90;;;;;;4980430;28;20689;-75
2023/08/03 03:39:24;;;;;;;2.65;1.40;;;14.90;99.90;;;;;;4994309;28;20536;-76
2023/08/03 03:41:52;;;;;;;2.50;1.73;;;14.90;99.90;;;;;;4991496;28;20054;-74
2023/08/03 03:44:19;;;;;;;2.95;1.17;;;14.80;99.90;;;;;;4997495;28;20038;-75
2023/08/03 03:46:46;;;;;;;1.85;1.08;;;14.80;99.90;;;;;;4985223;28;21552;-74
2023/08/03 03:49:13;;;;;;;2.30;1.13;;;14.80;99.90;;;;;;4977462;28;20049;-75
2023/08/03 03:51:40;;;;;;;0.80;0.80;;;14.80;99.90;;;;;;4986567;28;20053;-73
2023/08/03 03:54:09;;;;;;;3.20;0.95;;;14.70;99.90;;;;;;4993332;28;20148;-74
2023/08/03 03:56:35;;;;;;;1.42;1.08;;;14.70;99.90;;;;;;4989910;28;20103;-75
2023/08/03 03:59:03;;;;;;;2.53;0.80;;;14.70;99.90;;;;;;4977813;28;20129;-75
2023/08/03 04:01:32;;;;;;;2.15;1.10;;;14.80;99.90;;;;;;4987415;28;20069;-75
2023/08/03 04:03:58;;;;;;;2.33;1.10;;;14.80;99.90;;;;;;4993078;28;20177;-73
2023/08/03 04:06:26;;;;;;;5.30;1.42;;;14.80;99.90;;;;;;4994020;28;20105;-74
2023/08/03 04:08:53;;;;;;;2.47;1.10;;;14.80;99.90;;;;;;4992595;28;20042;-74
2023/08/03 04:11:20;;;;;;;1.42;1.02;;;14.80;99.90;;;;;;4987139;28;20041;-75
2023/08/03 04:13:48;;;;;;;2.38;1.00;;;14.80;99.90;;;;;;4969385;28;20136;-74
2023/08/03 04:16:15;;;;;;;4.38;1.42;;;14.80;99.90;;;;;;4986461;28;20058;-74
2023/08/03 04:18:42;;;;;;;4.35;1.20;;;14.80;99.90;;;;;;4985925;28;20529;-75
2023/08/03 04:21:09;;;;;;;2.92;1.52;;;14.80;99.90;;;;;;4992794;28;20050;-75
2023/08/03 04:23:36;;;;;;;3.00;1.95;;;14.80;99.90;;;;;;4973188;28;20048;-74
2023/08/03 04:26:07;;;;;;;2.53;1.60;;;14.90;99.90;;;;;;4993585;28;20045;-74
2023/08/03 04:28:34;;;;;;;5.18;2.20;;;14.90;99.90;;;;;;4977799;28;20057;-74
2023/08/03 04:31:01;;;;;;;6.57;2.13;;;14.90;99.90;;;;;;4996676;28;20045;-74
2023/08/03 04:33:29;;;;;;;4.05;2.13;;;14.90;99.90;;;;;;4994394;28;20076;-72
2023/08/03 04:36:00;;;;;;;3.05;2.22;;;15.00;99.90;;;;;;4997674;28;20096;-72
2023/08/03 04:38:32;;;;;;;5.65;2.38;;;15.00;99.90;;;;;;4992066;28;20050;-72
2023/08/03 04:41:01;;;;;;;3.58;2.28;;;15.00;99.90;;;;;;4989254;28;20042;-72
2023/08/03 04:43:31;;;;;;;4.00;2.42;;;15.00;99.90;;;;;;5005353;28;20026;-73
2023/08/03 04:45:58;;;;;;;4.50;2.80;;;14.90;99.90;;;;;;4981974;28;20048;-72
2023/08/03 04:48:26;;;;;;;3.17;2.40;;;15.00;99.90;;;;;;4997836;28;20096;-73
2023/08/03 04:50:53;;;;;;;5.55;3.22;;;15.00;99.90;;;;;;4993628;28;20045;-74
2023/08/03 04:53:22;;;;;;;3.30;3.00;;;15.00;99.90;;;;;;4981896;28;20153;-73
2023/08/03 04:55:50;;;;;;;6.22;3.67;;;15.00;99.90;;;;;;4995147;28;20049;-73
2023/08/03 04:58:16;;;;;;;4.88;3.38;;;15.00;99.90;;;;;;4978586;28;20053;-73
2023/08/03 05:00:47;;;;;;;4.40;3.97;;;15.10;99.90;;;;;;4990226;28;20096;-74
2023/08/03 05:03:14;;;;;;;8.88;3.92;;;15.10;99.90;;;;;;4975660;28;20532;-73
2023/08/03 05:05:42;;;;;;;5.75;4.38;;;15.20;99.90;;;;;;4989075;28;20034;-74
2023/08/03 05:08:12;;;;;;;5.78;4.40;;;15.20;99.90;;;;;;4994624;28;20062;-74
2023/08/03 05:10:39;;;;;;;4.80;4.35;;;15.20;99.90;;;;;;4985618;28;20056;-74
2023/08/03 05:13:06;;;;;;;5.25;4.57;;;15.20;99.90;;;;;;4997100;28;20041;-73
2023/08/03 05:15:32;;;;;;;6.28;5.30;;;15.20;99.90;;;;;;4993800;28;20053;-75
2023/08/03 05:18:01;;;;;;;5.22;4.93;;;15.20;99.90;;;;;;4971969;28;20064;-74
2023/08/03 05:20:28;;;;;;;5.70;5.30;;;15.20;99.90;;;;;;4977194;28;20563;-74
2023/08/03 05:22:54;;;;;;;5.40;4.90;;;15.20;99.90;;;;;;4994610;28;20050;-74
2023/08/03 05:25:21;;;;;;;6.47;5.10;;;15.20;99.90;;;;;;4991810;28;20034;-74
2023/08/03 05:27:48;;;;;;;5.65;5.40;;;15.20;99.90;;;;;;4994726;28;20099;-74
2023/08/03 05:30:15;;;;;;;6.63;6.20;;;15.20;99.90;;;;;;5004252;28;20042;-74
2023/08/03 05:32:45;;;;;;;6.85;6.55;;;15.30;99.90;;;;;;4972687;28;20044;-75
2023/08/03 05:35:14;;;;;;;7.38;6.97;;;15.30;99.90;;;;;;4989981;28;20139;-73
2023/08/03 05:37:41;;;;;;;7.40;6.90;;;15.40;99.90;;;;;;4990727;28;20045;-74
2023/08/03 05:40:08;;;;;;;8.07;7.68;;;15.40;99.90;;;;;;4996396;28;20061;-73
2023/08/03 05:42:38;;;;;;;7.43;7.03;;;15.50;99.90;;;;;;4987582;28;20050;-72
2023/08/03 05:45:10;;;;;;;7.30;6.90;;;15.50;99.90;;;;;;4996039;28;20137;-75
2023/08/03 05:47:40;;;;;;;8.02;7.40;;;15.50;99.90;;;;;;4971563;28;20062;-74
2023/08/03 05:50:13;;;;;;;8.77;8.15;;;15.50;99.90;;;;;;4995322;28;20052;-74
2023/08/03 05:52:40;;;;;;;9.85;9.35;;;15.60;99.90;;;;;;5005079;28;20049;-74
2023/08/03 05:55:11;;;;;;;9.98;9.20;;;15.70;99.90;;;;;;4998613;28;20106;-73
2023/08/03 05:57:38;;;;;;;10.20;9.70;;;15.80;99.90;;;;;;4993209;28;20677;-73
2023/08/03 06:00:14;;;;;;;10.82;10.13;;;16.00;99.90;;;;;;4975831;28;20115;-73
2023/08/03 06:02:43;;;;;;;11.05;10.45;;;16.00;99.90;;;;;;4991353;28;20046;-74
2023/08/03 06:05:33;;;;;;;11.27;10.63;;;16.00;99.90;;;;;;4987959;28;20807;-74
2023/08/03 06:08:00;;;;;;;12.13;11.43;;;16.00;99.90;;;;;;4991659;28;20182;-74
2023/08/03 06:10:29;;;;;;;12.05;11.45;;;16.00;99.90;;;;;;4990352;28;20066;-74
2023/08/03 06:12:56;;;;;;;12.20;11.50;;;16.00;99.90;;;;;;4965927;28;20077;-74
2023/08/03 06:15:22;;;;;;;11.82;11.23;;;16.00;99.90;;;;;;4989075;28;20482;-74
2023/08/03 06:17:50;;;;;;;12.48;11.90;;;16.00;99.90;;;;;;4992071;28;20511;-73
2023/08/03 06:20:22;;;;;;;12.07;11.40;;;16.00;99.90;;;;;;4994624;28;20053;-74
2023/08/03 06:22:48;;;;;;;11.90;11.20;;;15.90;99.90;;;;;;4985751;28;20049;-75
2023/08/03 06:25:16;;;;;;;11.98;11.27;;;15.90;99.90;;;;;;4995708;28;20133;-74
2023/08/03 06:27:43;;;;;;;12.13;11.63;;;16.00;99.90;;;;;;4993824;28;20063;-73
2023/08/03 06:30:13;;;;;;;11.80;11.20;;;16.00;99.90;;;;;;5002316;28;20749;-73
2023/08/03 06:32:40;;;;;;;12.27;11.68;;;15.90;99.90;;;;;;4995026;28;20497;-74
2023/08/03 06:35:29;;;;;;;12.40;11.90;;;15.90;99.90;;;;;;4979627;28;20132;-74
2023/08/03 06:37:58;;;;;;;12.13;11.60;;;16.00;99.90;;;;;;4985804;28;20042;-74
2023/08/03 06:40:25;;;;;;;12.00;11.40;;;16.00;99.90;;;;;;4993481;28;20535;-74
2023/08/03 06:42:52;;;;;;;12.20;11.60;;;16.00;99.90;;;;;;4991177;28;20051;-74
2023/08/03 06:45:19;;;;;;;12.73;12.13;;;16.10;99.90;;;;;;4993637;28;20033;-73
2023/08/03 06:47:47;;;;;;;12.68;12.05;;;16.10;99.90;;;;;;4996931;28;20431;-72
2023/08/03 06:50:14;;;;;;;14.68;13.68;;;16.20;99.90;;;;;;4998907;28;20056;-74
2023/08/03 06:52:41;;;;;;;12.65;12.00;;;16.20;99.90;;;;;;4972296;28;20764;-74
2023/08/03 06:55:07;;;;;;;13.13;12.52;;;16.30;99.90;;;;;;4990362;28;20045;-74
2023/08/03 06:57:34;;;;;;;13.00;12.40;;;16.40;99.90;;;;;;5000605;28;20447;-75
2023/08/03 07:00:02;;;;;;;14.48;13.77;;;16.40;99.90;;;;;;4992850;28;20065;-73
2023/08/03 07:02:28;;;;;;;14.25;13.45;;;16.50;99.90;;;;;;4995294;28;20747;-74
2023/08/03 07:04:55;;;;;;;13.80;13.10;;;16.50;99.90;;;;;;4990621;28;20061;-73
2023/08/03 07:07:23;;;;;;;13.73;12.93;;;16.40;99.90;;;;;;4995665;28;20042;-74
2023/08/03 07:09:49;;;;;;;12.93;12.23;;;16.40;99.90;;;;;;4974604;28;20112;-74
2023/08/03 07:12:16;;;;;;;13.65;13.00;;;16.40;99.90;;;;;;4989651;28;20038;-75
2023/08/03 07:14:43;;;;;;;12.05;11.55;;;16.30;99.90;;;;;;4981313;28;20044;-75
2023/08/03 07:17:10;;;;;;;12.25;11.45;;;16.30;99.90;;;;;;4992196;28;20053;-75
2023/08/03 07:19:38;;;;;;;10.15;9.65;;;16.30;99.90;;;;;;4995547;28;20473;-75
2023/08/03 07:22:05;;;;;;;9.98;9.50;;;16.20;99.90;;;;;;4990439;28;20046;-75
2023/08/03 07:24:33;;;;;;;9.95;9.45;;;16.20;99.90;;;;;;4998818;28;20054;-74
2023/08/03 07:27:02;;;;;;;10.55;9.80;;;16.20;99.90;;;;;;4991889;28;20042;-76
2023/08/03 07:29:30;;;;;;;10.88;10.27;;;16.20;99.90;;;;;;4993419;28;20062;-73
2023/08/03 07:31:57;;;;;;;10.43;10.02;;;16.30;99.90;;;;;;4987410;28;20042;-75
2023/08/03 07:34:24;;;;;;;11.20;10.70;;;16.40;99.90;;;;;;4994371;28;20038;-75
2023/08/03 07:36:52;;;;;;;11.88;11.27;;;16.60;99.90;;;;;;4986343;28;20095;-74
2023/08/03 07:39:19;;;;;;;13.10;12.50;;;16.80;99.90;;;;;;4977476;28;20041;-75
2023/08/03 07:41:47;;;;;;;13.50;12.90;;;16.80;99.90;;;;;;4989407;28;20133;-74
2023/08/03 07:44:17;;;;;;;14.55;13.77;;;17.10;99.90;;;;;;4996980;28;20062;-74
2023/08/03 07:46:45;;;;;;;15.27;14.48;;;17.20;99.90;;;;;;4991363;28;20042;-75
2023/08/03 07:49:12;;;;;;;14.75;14.05;;;17.50;99.90;;;;;;4987137;28;20084;-74
2023/08/03 07:51:39;;;;;;;14.20;13.40;;;17.60;99.90;;;;;;5001988;28;20521;-74
2023/08/03 07:54:06;;;;;;;14.80;14.10;;;17.60;99.90;;;;;;5010741;28;20060;-72
2023/08/03 07:56:33;;;;;;;14.55;13.80;;;17.60;99.90;;;;;;5014759;28;20045;-73
2023/08/03 07:59:00;;;;;;;15.40;14.60;;;17.60;99.90;;;;;;4999433;28;20695;-73
2023/08/03 08:01:27;;;;;;;14.32;13.63;;;17.30;99.90;;;;;;4993985;28;20042;-73
2023/08/03 08:03:54;;;;;;;13.55;12.95;;;17.20;99.90;;;;;;4989802;28;20108;-74
2023/08/03 08:06:21;;;;;;;13.73;13.13;;;17.00;99.90;;;;;;4975865;28;20094;-74
2023/08/03 08:08:50;;;;;;;13.82;13.15;;;17.00;99.90;;;;;;4994564;28;20380;-74
2023/08/03 08:11:17;;;;;;;12.68;12.18;;;16.90;99.90;;;;;;4987043;28;20065;-73
2023/08/03 08:13:44;;;;;;;8.95;8.65;;;16.70;99.90;;;;;;4996449;28;20504;-74
2023/08/03 08:16:13;;;;;;;8.35;7.95;;;16.50;99.90;;;;;;4992808;28;20112;-74
2023/08/03 08:18:40;;;;;;;8.05;7.50;;;16.30;99.90;;;;;;4988126;28;20133;-74
2023/08/03 08:21:11;;;;;;;5.65;5.45;;;16.10;99.90;;;;;;4989540;28;20046;-72
2023/08/03 08:23:39;;;;;;;3.67;3.55;;;15.90;99.90;;;;;;5008315;28;20074;-74
2023/08/03 08:26:14;;;;;;;2.70;2.50;;;15.60;99.90;;;;;;4985677;28;20156;-75
2023/08/03 08:28:42;;;;;;;;;;;15.50;99.90;;;;;;4994118;28;20107;-74
2023/08/03 08:31:27;;;;;;;2.17;1.42;;;15.40;99.90;;;;;;4996473;28;19927;-75
2023/08/03 08:34:00;;;;;;;2.10;1.73;;;15.30;99.90;;;;;;4984953;28;20050;-75
2023/08/03 08:36:27;;;;;;;2.45;1.40;;;15.20;99.90;;;;;;4991587;28;20496;-75
2023/08/03 08:38:54;;;;;;;3.03;1.33;;;15.10;99.90;;;;;;4997722;28;20052;-75
2023/08/03 08:41:21;;;;;;;2.05;1.27;;;15.10;99.90;;;;;;4978360;28;20136;-74
2023/08/03 08:43:48;;;;;;;1.75;1.00;;;15.00;99.90;;;;;;4997881;28;20048;-74
2023/08/03 08:46:15;;;;;;;1.80;1.00;;;15.10;99.90;;;;;;4997069;28;20128;-74
2023/08/03 08:48:41;;;;;;;5.25;1.30;;;15.10;99.90;;;;;;4996751;28;20050;-74
2023/08/03 08:51:12;;;;;;;1.42;0.98;;;15.10;99.90;;;;;;4991613;28;20724;-73
2023/08/03 08:53:39;;;;;;;1.80;0.98;;;15.10;99.90;;;;;;4996608;28;20069;-75
2023/08/03 08:56:09;;;;;;;2.63;0.80;;;15.20;99.90;;;;;;5002774;28;20050;-74
2023/08/03 08:58:56;;;;;;;1.63;0.63;;;15.20;99.90;;;;;;4990207;28;20042;-73
2023/08/03 09:01:25;;;;;;;1.83;0.60;;;15.20;99.90;;;;;;4995831;28;20079;-72
2023/08/03 09:03:54;;;;;;;2.88;0.70;;;15.30;99.90;;;;;;4992877;28;20132;-74
2023/08/03 09:06:24;;;;;;;0.82;0.50;;;15.30;99.90;;;;;;4978820;28;20136;-73
2023/08/03 09:08:56;;;;;;;1.90;0.60;;;15.30;99.90;;;;;;4972850;28;20042;-73
2023/08/03 09:11:40;;;;;;;1.08;0.70;;;15.40;99.90;;;;;;4986949;28;20056;-73
2023/08/03 09:14:09;;;;;;;1.08;0.60;;;15.50;99.90;;;;;;4987202;28;20061;-73
2023/08/03 09:16:37;;;;;;;2.00;0.63;;;15.50;99.90;;;;;;4999141;28;20049;-72
2023/08/03 09:19:04;;;;;;;0.95;0.73;;;15.50;99.90;;;;;;4995090;28;20076;-73
2023/08/03 09:21:30;;;;;;;0.68;0.60;;;15.50;99.90;;;;;;5002489;28;20662;-74
2023/08/03 09:24:16;;;;;;;2.10;0.73;;;15.60;99.90;;;;;;4994188;28;20046;-73
2023/08/03 09:26:46;;;;;;;1.50;0.60;;;15.70;99.90;;;;;;4981800;28;20042;-73
2023/08/03 09:29:16;;;;;;;1.58;0.70;;;16.00;99.90;;;;;;4996974;28;20535;-73
2023/08/03 09:31:58;;;;;;;1.37;1.27;;;16.00;99.90;;;;;;4992695;28;20096;-73
2023/08/03 09:34:34;;;;;;;0.80;0.80;;;16.00;99.90;;;;;;5011804;28;20466;-74
2023/08/03 09:37:06;;;;;;;1.00;0.90;;;16.00;99.90;;;;;;4979573;28;20046;-74
2023/08/03 09:39:38;;;;;;;1.20;1.00;;;15.90;99.90;;;;;;4974658;28;20050;-74
2023/08/03 09:42:06;;;;;;;1.30;1.20;;;15.90;99.90;;;;;;4969721;28;20127;-74
2023/08/03 09:44:34;;;;;;;1.38;1.27;;;15.90;99.90;;;;;;5000635;28;20050;-73
2023/08/03 09:47:02;;;;;;;1.60;1.05;;;15.80;99.90;;;;;;4998182;28;20042;-73
2023/08/03 09:49:30;;;;;;;1.50;1.40;;;15.80;99.90;;;;;;5013792;28;20540;-73
2023/08/03 09:51:59;;;;;;;1.85;1.30;;;15.90;99.90;;;;;;4994271;28;20095;-73
2023/08/03 09:54:42;;;;;;;1.00;0.93;;;16.00;99.90;;;;;;4999864;28;20045;-73
2023/08/03 09:57:14;;;;;;;1.25;1.17;;;16.10;99.90;;;;;;4989626;28;20053;-74
2023/08/03 09:59:45;;;;;;;1.45;1.20;;;16.20;99.90;;;;;;4995748;28;20041;-74
2023/08/03 10:02:19;;;;;;;2.08;1.92;;;16.30;99.90;;;;;;4981054;28;20119;-74
2023/08/03 10:04:51;;;;;;;;;;;16.60;99.90;;;;;;4998710;28;20076;-72
2023/08/03 10:07:22;;;;;;;2.78;2.67;;;16.80;99.90;;;;;;4990730;28;20021;-73
2023/08/03 10:09:55;;;;;;;3.28;3.17;;;16.90;99.90;;;;;;4992795;28;20034;-73
2023/08/03 10:12:40;;;;;;;4.60;3.40;;;16.90;99.90;;;;;;4984926;28;20050;-75
2023/08/03 10:15:09;;;;;;;4.10;3.90;;;16.80;99.90;;;;;;4971619;28;20042;-73
2023/08/03 10:17:38;;;;;;;5.75;5.45;;;16.70;99.90;;;;;;4977441;28;20140;-75
2023/08/03 10:20:07;;;;;;;7.05;6.75;;;17.00;99.90;;;;;;4993853;28;20077;-74
2023/08/03 10:22:34;;;;;;;9.40;8.90;;;17.40;99.90;;;;;;5000415;28;20415;-74
2023/08/03 10:25:20;;;;;;;9.43;8.98;;;17.60;99.90;;;;;;4992207;28;20050;-73
2023/08/03 10:28:13;;;;;;;10.00;9.60;;;17.50;99.90;;;;;;4994674;28;20676;-74
2023/08/03 10:31:11;;;;;;;9.55;9.23;;;17.40;99.90;;;;;;4992679;28;20096;-74
2023/08/03 10:34:03;;;;;;;9.85;9.40;;;17.40;99.90;;;;;;4990411;28;20050;-74
2023/08/03 10:36:38;;;;;;;9.85;9.45;;;17.30;99.90;;;;;;4993219;28;20049;-73
2023/08/03 10:39:11;;;;;;;9.57;9.18;;;17.50;99.90;;;;;;4993876;28;20054;-74
2023/08/03 10:41:46;;;;;;;10.00;9.60;;;17.50;99.90;;;;;;4997588;28;20404;-74
2023/08/03 10:44:13;;;;;;;11.07;10.68;;;17.50;99.90;;;;;;4975681;28;20586;-74
2023/08/03 10:46:42;;;;;;;11.18;10.68;;;17.50;99.90;;;;;;4993173;28;20038;-73
2023/08/03 10:49:44;;;;;;;12.63;12.13;;;17.50;99.90;;;;;;4990791;28;20087;-73
2023/08/03 10:52:31;;;;;;;12.48;11.98;;;17.60;99.90;;;;;;4988780;28;20092;-74
2023/08/03 10:55:08;;;;;;;16.27;15.57;;;17.60;99.90;;;;;;4973536;28;20107;-74
2023/08/03 10:57:43;;;;;;;13.90;13.30;;;17.90;99.90;;;;;;4995430;28;20053;-74
2023/08/03 11:00:11;;;;;;;14.23;13.63;;;18.10;99.90;;;;;;4990029;28;20691;-74
2023/08/03 11:02:42;;;;;;;14.63;14.02;;;18.00;99.90;;;;;;4996021;28;20050;-75
2023/08/03 11:05:11;;;;;;;14.43;13.82;;;17.90;99.90;;;;;;4988356;28;20045;-74
2023/08/03 11:07:40;;;;;;;13.73;13.13;;;17.80;99.90;;;;;;4995772;28;20127;-73
2023/08/03 11:10:10;;;;;;;13.35;12.85;;;17.70;99.90;;;;;;4987662;28;20516;-74
2023/08/03 11:12:38;;;;;;;13.25;12.68;;;17.50;99.90;;;;;;4988426;28;20057;-73
2023/08/03 11:15:06;;;;;;;12.05;11.50;;;17.40;99.90;;;;;;5010375;28;20071;-74
2023/08/03 11:17:34;;;;;;;12.50;11.90;;;17.60;99.90;;;;;;4988352;28;20143;-73
2023/08/03 11:20:04;;;;;;;12.55;12.05;;;17.60;99.90;;;;;;4991637;28;20049;-75
2023/08/03 11:22:31;;;;;;;11.52;11.02;;;17.60;99.90;;;;;;4996468;28;20701;-73
2023/08/03 11:25:03;;;;;;;13.80;13.25;;;17.60;99.90;;;;;;4989950;28;20092;-73
2023/08/03 11:27:31;;;;;;;14.80;14.20;;;17.60;99.90;;;;;;4995982;28;20034;-74
2023/08/03 11:29:58;;;;;;;14.90;14.27;;;17.60;99.90;;;;;;4998620;28;20046;-74
2023/08/03 11:32:30;;;;;;;14.98;14.10;;;17.80;99.90;;;;;;4996538;28;20048;-75
2023/08/03 11:35:06;;;;;;;14.93;14.18;;;17.70;99.90;;;;;;4987100;28;20053;-74
2023/08/03 11:37:35;;;;;;;14.43;13.77;;;17.70;99.90;;;;;;4991740;28;20046;-74
2023/08/03 11:40:05;;;;;;;13.70;13.10;;;17.70;99.90;;;;;;4985139;28;20700;-73
2023/08/03 11:42:34;;;;;;;13.55;12.95;;;17.60;99.90;;;;;;4990800;28;20636;-74
2023/08/03 11:45:01;;;;;;;15.10;14.50;;;17.60;99.90;;;;;;4994688;28;20118;-75
2023/08/03 11:47:44;;;;;;;14.60;13.98;;;17.50;99.90;;;;;;4990343;28;20447;-75
2023/08/03 11:50:17;;;;;;;14.95;14.10;;;17.50;99.90;;;;;;4990915;28;20057;-75
2023/08/03 11:52:44;;;;;;;14.45;13.75;;;17.50;99.90;;;;;;4992732;28;20486;-75
2023/08/03 11:55:32;;;;;;;13.70;12.90;;;17.50;99.90;;;;;;4991718;28;20069;-75
2023/08/03 11:58:10;;;;;;;14.23;13.52;;;17.40;99.90;;;;;;4990345;28;20133;-75
2023/08/03 12:00:42;;;;;;;14.20;13.48;;;17.30;99.90;;;;;;4976044;28;20593;-75
2023/08/03 12:03:09;;;;;;;14.57;13.85;;;17.30;99.90;;;;;;4990385;28;20520;-76
2023/08/03 12:06:08;;;;;;;13.32;12.73;;;17.30;99.90;;;;;;4993183;28;20148;-76
2023/08/03 12:08:55;;;;;;;14.50;13.90;;;17.20;99.90;;;;;;4999878;28;20904;-74
2023/08/03 12:11:22;;;;;;;14.60;13.55;;;17.30;99.90;;;;;;4988610;28;20451;-76
2023/08/03 12:13:51;;;;;;;13.55;12.95;;;17.40;99.90;;;;;;4987526;28;20117;-74
2023/08/03 12:16:18;;;;;;;15.88;15.18;;;17.40;99.90;;;;;;4993455;28;20057;-72
2023/08/03 12:18:45;;;;;;;16.88;15.98;;;17.50;99.90;;;;;;4976148;28;20042;-74
2023/08/03 12:21:15;;;;;;;16.35;15.55;;;17.50;99.90;;;;;;4995794;28;20074;-71
2023/08/03 12:23:42;;;;;;;16.92;16.00;;;17.50;99.90;;;;;;4995304;28;20052;-71
2023/08/03 12:26:09;;;;;;;16.35;15.32;;;17.60;99.90;;;;;;4988764;28;20121;-73
2023/08/03 12:28:35;;;;;;;13.75;13.02;;;17.50;99.90;;;;;;4991819;28;20066;-72
2023/08/03 12:31:02;;;;;;;11.90;11.40;;;17.30;99.90;;;;;;4999289;28;20125;-74
2023/08/03 12:33:29;;;;;;;11.63;11.02;;;17.10;99.90;;;;;;5006208;28;20476;-71
2023/08/03 12:35:56;;;;;;;10.60;10.10;;;16.90;99.90;;;;;;5000673;28;20038;-74
2023/08/03 12:38:23;;;;;;;10.18;9.75;;;16.90;99.90;;;;;;4993453;28;20050;-73
2023/08/03 12:40:50;;;;;;;10.20;9.60;;;16.90;99.90;;;;;;4992808;28;20113;-75
2023/08/03 12:43:16;;;;;;;8.88;8.48;;;16.80;99.90;;;;;;4969093;28;20058;-72
2023/08/03 12:45:44;;;;;;;8.80;8.38;;;16.70;99.90;;;;;;4992079;28;20030;-72
2023/08/03 12:48:11;;;;;;;7.90;7.50;;;16.60;99.90;;;;;;4992207;28;20046;-72